sensor_id;sensor_type;location;lat;lon;timestamp;temperature;humidity
76787;DHT22;65739;51.482;5.702;2023-04-25T00:01:20;6.90;99.90
76787;DHT22;65739;51.482;5.702;2023-04-25T00:03:47;6.90;99.90
76787;DHT22;65739;51.482;5.702;2023-04-25T00:06:13;7.00;99.90
76787;DHT22;65739;51.482;5.702;2023-04-25T00:08:39;6.90;99.90
76787;DHT22;65739;51.482;5.702;2023-04-25T00:11:04;6.90;99.90
76787;DHT22;65739;51.482;5.702;2023-04-25T00:13:30;6.90;99.90
76787;DHT22;65739;51.482;5.702;2023-04-25T00:15:55;6.90;99.90
76787;DHT22;65739;51.482;5.702;2023-04-25T00:18:25;7.00;99.90
76787;DHT22;65739;51.482;5.702;2023-04-25T00:20:53;6.90;99.90
76787;DHT22;65739;51.482;5.702;2023-04-25T00:23:19;6.90;99.90
76787;DHT22;65739;51.482;5.702;2023-04-25T00:25:45;7.00;99.90
76787;DHT22;65739;51.482;5.702;2023-04-25T00:28:12;6.90;99.90
76787;DHT22;65739;51.482;5.702;2023-04-25T00:30:38;6.90;99.90
76787;DHT22;65739;51.482;5.702;2023-04-25T00:33:04;6.90;99.90
76787;DHT22;65739;51.482;5.702;2023-04-25T00:35:29;6.90;99.90
76787;DHT22;65739;51.482;5.702;2023-04-25T00:37:55;6.80;99.90
76787;DHT22;65739;51.482;5.702;2023-04-25T00:40:21;6.80;99.90
76787;DHT22;65739;51.482;5.702;2023-04-25T00:42:47;6.80;99.90
76787;DHT22;65739;51.482;5.702;2023-04-25T00:45:14;6.80;99.90
76787;DHT22;65739;51.482;5.702;2023-04-25T00:47:43;6.80;99.90
76787;DHT22;65739;51.482;5.702;2023-04-25T00:50:09;6.80;99.90
76787;DHT22;65739;51.482;5.702;2023-04-25T00:52:38;6.80;99.90
76787;DHT22;65739;51.482;5.702;2023-04-25T00:55:03;6.80;99.90
76787;DHT22;65739;51.482;5.702;2023-04-25T00:57:29;6.70;99.90
76787;DHT22;65739;51.482;5.702;2023-04-25T00:59:55;6.60;99.90
76787;DHT22;65739;51.482;5.702;2023-04-25T01:02:21;6.50;99.90
76787;DHT22;65739;51.482;5.702;2023-04-25T01:04:48;6.40;99.90
76787;DHT22;65739;51.482;5.702;2023-04-25T01:07:14;6.30;99.90
76787;DHT22;65739;51.482;5.702;2023-04-25T01:09:40;6.30;99.90
76787;DHT22;65739;51.482;5.702;2023-04-25T01:12:06;6.20;99.90
76787;DHT22;65739;51.482;5.702;2023-04-25T01:14:32;6.30;99.90
76787;DHT22;65739;51.482;5.702;2023-04-25T01:16:58;6.30;99.90
76787;DHT22;65739;51.482;5.702;2023-04-25T01:19:23;6.30;99.90
76787;DHT22;65739;51.482;5.702;2023-04-25T01:21:50;6.40;99.90
76787;DHT22;65739;51.482;5.702;2023-04-25T01:24:16;6.40;99.90
76787;DHT22;65739;51.482;5.702;2023-04-25T01:26:42;6.30;99.90
76787;DHT22;65739;51.482;5.702;2023-04-25T01:29:17;6.30;99.90
76787;DHT22;65739;51.482;5.702;2023-04-25T01:31:44;6.20;99.90
76787;DHT22;65739;51.482;5.702;2023-04-25T01:34:10;6.10;99.90
76787;DHT22;65739;51.482;5.702;2023-04-25T01:36:36;6.00;99.90
76787;DHT22;65739;51.482;5.702;2023-04-25T01:39:02;5.90;99.90
76787;DHT22;65739;51.482;5.702;2023-04-25T01:41:27;5.80;99.90
76787;DHT22;65739;51.482;5.702;2023-04-25T01:43:54;5.70;99.90
76787;DHT22;65739;51.482;5.702;2023-04-25T01:46:19;5.70;99.90
76787;DHT22;65739;51.482;5.702;2023-04-25T01:48:45;5.60;99.90
76787;DHT22;65739;51.482;5.702;2023-04-25T01:51:11;5.50;99.90
76787;DHT22;65739;51.482;5.702;2023-04-25T01:53:38;5.50;99.90
76787;DHT22;65739;51.482;5.702;2023-04-25T01:56:04;5.50;99.90
76787;DHT22;65739;51.482;5.702;2023-04-25T01:58:30;5.40;99.90
76787;DHT22;65739;51.482;5.702;2023-04-25T02:00:55;5.40;99.90
76787;DHT22;65739;51.482;5.702;2023-04-25T02:03:21;5.50;99.90
76787;DHT22;65739;51.482;5.702;2023-04-25T02:05:46;5.50;99.90
76787;DHT22;65739;51.482;5.702;2023-04-25T02:08:12;5.60;99.90
76787;DHT22;65739;51.482;5.702;2023-04-25T02:10:37;5.60;99.90
76787;DHT22;65739;51.482;5.702;2023-04-25T02:13:03;5.60;99.90
76787;DHT22;65739;51.482;5.702;2023-04-25T02:15:30;5.60;99.90
76787;DHT22;65739;51.482;5.702;2023-04-25T02:17:56;5.70;99.90
76787;DHT22;65739;51.482;5.702;2023-04-25T02:20:22;5.70;99.90
76787;DHT22;65739;51.482;5.702;2023-04-25T02:22:48;5.70;99.90
76787;DHT22;65739;51.482;5.702;2023-04-25T02:25:14;5.70;99.90
76787;DHT22;65739;51.482;5.702;2023-04-25T02:27:41;5.60;99.90
76787;DHT22;65739;51.482;5.702;2023-04-25T02:30:07;5.60;99.90
76787;DHT22;65739;51.482;5.702;2023-04-25T02:32:33;5.50;99.90
76787;DHT22;65739;51.482;5.702;2023-04-25T02:35:00;5.50;99.90
76787;DHT22;65739;51.482;5.702;2023-04-25T02:37:29;5.50;99.90
76787;DHT22;65739;51.482;5.702;2023-04-25T02:39:55;5.50;99.90
76787;DHT22;65739;51.482;5.702;2023-04-25T02:42:20;5.40;99.90
76787;DHT22;65739;51.482;5.702;2023-04-25T02:44:46;5.30;99.90
76787;DHT22;65739;51.482;5.702;2023-04-25T02:47:11;5.40;99.90
76787;DHT22;65739;51.482;5.702;2023-04-25T02:49:37;5.30;99.90
76787;DHT22;65739;51.482;5.702;2023-04-25T02:52:02;5.20;99.90
76787;DHT22;65739;51.482;5.702;2023-04-25T02:54:28;5.20;99.90
76787;DHT22;65739;51.482;5.702;2023-04-25T02:56:53;5.20;99.90
76787;DHT22;65739;51.482;5.702;2023-04-25T02:59:19;5.10;99.90
76787;DHT22;65739;51.482;5.702;2023-04-25T03:01:44;5.00;99.90
76787;DHT22;65739;51.482;5.702;2023-04-25T03:04:10;5.00;99.90
76787;DHT22;65739;51.482;5.702;2023-04-25T03:06:36;4.90;99.90
76787;DHT22;65739;51.482;5.702;2023-04-25T03:09:01;4.90;99.90
76787;DHT22;65739;51.482;5.702;2023-04-25T03:11:27;4.80;99.90
76787;DHT22;65739;51.482;5.702;2023-04-25T03:13:53;4.70;99.90
76787;DHT22;65739;51.482;5.702;2023-04-25T03:16:19;4.60;99.90
76787;DHT22;65739;51.482;5.702;2023-04-25T03:18:45;4.60;99.90
76787;DHT22;65739;51.482;5.702;2023-04-25T03:21:10;4.50;99.90
76787;DHT22;65739;51.482;5.702;2023-04-25T03:23:36;4.50;99.90
76787;DHT22;65739;51.482;5.702;2023-04-25T03:26:01;4.40;99.90
76787;DHT22;65739;51.482;5.702;2023-04-25T03:28:27;4.40;99.90
76787;DHT22;65739;51.482;5.702;2023-04-25T03:30:52;4.40;99.90
76787;DHT22;65739;51.482;5.702;2023-04-25T03:33:19;4.40;99.90
76787;DHT22;65739;51.482;5.702;2023-04-25T03:35:44;4.30;99.90
76787;DHT22;65739;51.482;5.702;2023-04-25T03:38:10;4.40;99.90
76787;DHT22;65739;51.482;5.702;2023-04-25T03:40:36;4.40;99.90
76787;DHT22;65739;51.482;5.702;2023-04-25T03:43:01;4.40;99.90
76787;DHT22;65739;51.482;5.702;2023-04-25T03:45:27;4.30;99.90
76787;DHT22;65739;51.482;5.702;2023-04-25T03:47:53;4.30;99.90
76787;DHT22;65739;51.482;5.702;2023-04-25T03:50:18;4.30;99.90
76787;DHT22;65739;51.482;5.702;2023-04-25T03:52:44;4.30;99.90
76787;DHT22;65739;51.482;5.702;2023-04-25T03:55:09;4.40;99.90
76787;DHT22;65739;51.482;5.702;2023-04-25T03:57:35;4.50;99.90
76787;DHT22;65739;51.482;5.702;2023-04-25T04:00:01;4.50;99.90
76787;DHT22;65739;51.482;5.702;2023-04-25T04:02:26;4.60;99.90
76787;DHT22;65739;51.482;5.702;2023-04-25T04:04:52;4.70;99.90
76787;DHT22;65739;51.482;5.702;2023-04-25T04:07:17;4.70;99.90
76787;DHT22;65739;51.482;5.702;2023-04-25T04:09:43;4.80;99.90
76787;DHT22;65739;51.482;5.702;2023-04-25T04:12:08;4.80;99.90
76787;DHT22;65739;51.482;5.702;2023-04-25T04:14:34;4.80;99.90
76787;DHT22;65739;51.482;5.702;2023-04-25T04:16:59;4.80;99.90
76787;DHT22;65739;51.482;5.702;2023-04-25T04:19:25;4.80;99.90
76787;DHT22;65739;51.482;5.702;2023-04-25T04:21:51;4.90;99.90
76787;DHT22;65739;51.482;5.702;2023-04-25T04:24:16;4.90;99.90
76787;DHT22;65739;51.482;5.702;2023-04-25T04:26:42;4.90;99.90
76787;DHT22;65739;51.482;5.702;2023-04-25T04:29:10;5.00;99.90
76787;DHT22;65739;51.482;5.702;2023-04-25T04:31:36;5.00;99.90
76787;DHT22;65739;51.482;5.702;2023-04-25T04:34:02;5.00;99.90
76787;DHT22;65739;51.482;5.702;2023-04-25T04:36:29;5.00;99.90
76787;DHT22;65739;51.482;5.702;2023-04-25T04:38:54;5.10;99.90
76787;DHT22;65739;51.482;5.702;2023-04-25T04:41:21;5.10;99.90
76787;DHT22;65739;51.482;5.702;2023-04-25T04:43:47;5.20;99.90
76787;DHT22;65739;51.482;5.702;2023-04-25T04:46:13;5.20;99.90
76787;DHT22;65739;51.482;5.702;2023-04-25T04:48:38;5.30;99.90
76787;DHT22;65739;51.482;5.702;2023-04-25T04:51:05;5.30;99.90
76787;DHT22;65739;51.482;5.702;2023-04-25T04:53:31;5.40;99.90
76787;DHT22;65739;51.482;5.702;2023-04-25T04:55:57;5.40;99.90
76787;DHT22;65739;51.482;5.702;2023-04-25T04:58:23;5.50;99.90
76787;DHT22;65739;51.482;5.702;2023-04-25T05:00:48;5.60;99.90
76787;DHT22;65739;51.482;5.702;2023-04-25T05:03:14;5.60;99.90
76787;DHT22;65739;51.482;5.702;2023-04-25T05:05:39;5.70;99.90
76787;DHT22;65739;51.482;5.702;2023-04-25T05:08:07;5.70;99.90
76787;DHT22;65739;51.482;5.702;2023-04-25T05:10:33;5.70;99.90
76787;DHT22;65739;51.482;5.702;2023-04-25T05:12:59;5.80;99.90
76787;DHT22;65739;51.482;5.702;2023-04-25T05:15:24;5.80;99.90
76787;DHT22;65739;51.482;5.702;2023-04-25T05:17:50;5.90;99.90
76787;DHT22;65739;51.482;5.702;2023-04-25T05:20:15;5.90;99.90
76787;DHT22;65739;51.482;5.702;2023-04-25T05:22:41;6.00;99.90
76787;DHT22;65739;51.482;5.702;2023-04-25T05:25:08;6.00;99.90
76787;DHT22;65739;51.482;5.702;2023-04-25T05:27:34;6.10;99.90
76787;DHT22;65739;51.482;5.702;2023-04-25T05:29:59;6.20;99.90
76787;DHT22;65739;51.482;5.702;2023-04-25T05:32:26;6.20;99.90
76787;DHT22;65739;51.482;5.702;2023-04-25T05:34:52;6.20;99.90
76787;DHT22;65739;51.482;5.702;2023-04-25T05:37:17;6.30;99.90
76787;DHT22;65739;51.482;5.702;2023-04-25T05:39:43;6.20;99.90
76787;DHT22;65739;51.482;5.702;2023-04-25T05:42:08;6.30;99.90
76787;DHT22;65739;51.482;5.702;2023-04-25T05:44:34;6.40;99.90
76787;DHT22;65739;51.482;5.702;2023-04-25T05:46:59;6.60;99.90
76787;DHT22;65739;51.482;5.702;2023-04-25T05:49:25;6.70;99.90
76787;DHT22;65739;51.482;5.702;2023-04-25T05:51:51;6.80;99.90
76787;DHT22;65739;51.482;5.702;2023-04-25T05:54:16;6.80;99.90
76787;DHT22;65739;51.482;5.702;2023-04-25T05:56:42;6.80;99.90
76787;DHT22;65739;51.482;5.702;2023-04-25T05:59:08;6.90;99.90
76787;DHT22;65739;51.482;5.702;2023-04-25T06:01:33;7.00;99.90
76787;DHT22;65739;51.482;5.702;2023-04-25T06:03:59;7.10;99.90
76787;DHT22;65739;51.482;5.702;2023-04-25T06:06:24;7.20;99.90
76787;DHT22;65739;51.482;5.702;2023-04-25T06:08:52;7.30;99.90
76787;DHT22;65739;51.482;5.702;2023-04-25T06:11:17;7.40;99.90
76787;DHT22;65739;51.482;5.702;2023-04-25T06:13:43;7.60;99.90
76787;DHT22;65739;51.482;5.702;2023-04-25T06:16:08;7.50;99.90
76787;DHT22;65739;51.482;5.702;2023-04-25T06:18:34;7.40;99.90
76787;DHT22;65739;51.482;5.702;2023-04-25T06:20:59;7.50;99.90
76787;DHT22;65739;51.482;5.702;2023-04-25T06:23:25;7.50;99.90
76787;DHT22;65739;51.482;5.702;2023-04-25T06:25:50;7.50;99.90
76787;DHT22;65739;51.482;5.702;2023-04-25T06:28:16;7.60;99.90
76787;DHT22;65739;51.482;5.702;2023-04-25T06:30:41;7.70;99.90
76787;DHT22;65739;51.482;5.702;2023-04-25T06:33:07;7.70;99.90
76787;DHT22;65739;51.482;5.702;2023-04-25T06:35:34;7.90;99.90
76787;DHT22;65739;51.482;5.702;2023-04-25T06:37:59;8.00;99.90
76787;DHT22;65739;51.482;5.702;2023-04-25T06:40:25;8.30;99.90
76787;DHT22;65739;51.482;5.702;2023-04-25T06:42:50;8.50;99.90
76787;DHT22;65739;51.482;5.702;2023-04-25T06:45:16;8.60;99.90
76787;DHT22;65739;51.482;5.702;2023-04-25T06:47:41;8.50;99.90
76787;DHT22;65739;51.482;5.702;2023-04-25T06:50:07;8.50;99.90
76787;DHT22;65739;51.482;5.702;2023-04-25T06:52:33;8.60;99.90
76787;DHT22;65739;51.482;5.702;2023-04-25T06:54:58;8.40;99.90
76787;DHT22;65739;51.482;5.702;2023-04-25T06:57:24;8.70;99.90
76787;DHT22;65739;51.482;5.702;2023-04-25T06:59:49;8.70;99.90
76787;DHT22;65739;51.482;5.702;2023-04-25T07:02:15;8.50;99.90
76787;DHT22;65739;51.482;5.702;2023-04-25T07:04:40;8.40;99.90
76787;DHT22;65739;51.482;5.702;2023-04-25T07:07:06;8.30;99.90
76787;DHT22;65739;51.482;5.702;2023-04-25T07:09:31;8.20;99.90
76787;DHT22;65739;51.482;5.702;2023-04-25T07:11:59;8.20;99.90
76787;DHT22;65739;51.482;5.702;2023-04-25T07:14:26;8.20;99.90
76787;DHT22;65739;51.482;5.702;2023-04-25T07:16:52;8.30;99.90
76787;DHT22;65739;51.482;5.702;2023-04-25T07:19:17;8.30;99.90
76787;DHT22;65739;51.482;5.702;2023-04-25T07:21:43;8.30;99.90
76787;DHT22;65739;51.482;5.702;2023-04-25T07:24:08;8.30;99.90
76787;DHT22;65739;51.482;5.702;2023-04-25T07:26:34;8.40;99.90
76787;DHT22;65739;51.482;5.702;2023-04-25T07:28:59;8.60;99.90
76787;DHT22;65739;51.482;5.702;2023-04-25T07:31:25;8.70;99.90
76787;DHT22;65739;51.482;5.702;2023-04-25T07:33:50;8.80;99.90
76787;DHT22;65739;51.482;5.702;2023-04-25T07:36:16;8.80;99.90
76787;DHT22;65739;51.482;5.702;2023-04-25T07:38:42;8.80;99.90
76787;DHT22;65739;51.482;5.702;2023-04-25T07:41:07;8.90;99.90
76787;DHT22;65739;51.482;5.702;2023-04-25T07:43:33;8.90;99.90
76787;DHT22;65739;51.482;5.702;2023-04-25T07:45:58;8.80;99.90
76787;DHT22;65739;51.482;5.702;2023-04-25T07:48:24;9.00;99.90
76787;DHT22;65739;51.482;5.702;2023-04-25T07:50:49;9.00;99.90
76787;DHT22;65739;51.482;5.702;2023-04-25T07:53:16;9.00;99.90
76787;DHT22;65739;51.482;5.702;2023-04-25T07:55:43;9.20;99.90
76787;DHT22;65739;51.482;5.702;2023-04-25T07:58:09;9.40;99.90
76787;DHT22;65739;51.482;5.702;2023-04-25T08:00:35;9.70;99.90
76787;DHT22;65739;51.482;5.702;2023-04-25T08:03:01;9.80;99.90
76787;DHT22;65739;51.482;5.702;2023-04-25T08:05:26;9.90;99.90
76787;DHT22;65739;51.482;5.702;2023-04-25T08:07:52;9.70;99.90
76787;DHT22;65739;51.482;5.702;2023-04-25T08:10:17;9.70;99.90
76787;DHT22;65739;51.482;5.702;2023-04-25T08:12:43;9.70;99.90
76787;DHT22;65739;51.482;5.702;2023-04-25T08:15:09;9.60;99.90
76787;DHT22;65739;51.482;5.702;2023-04-25T08:17:34;9.90;99.90
76787;DHT22;65739;51.482;5.702;2023-04-25T08:20:00;10.20;99.90
76787;DHT22;65739;51.482;5.702;2023-04-25T08:22:26;10.40;99.90
76787;DHT22;65739;51.482;5.702;2023-04-25T08:24:51;10.50;99.90
76787;DHT22;65739;51.482;5.702;2023-04-25T08:27:18;10.70;99.90
76787;DHT22;65739;51.482;5.702;2023-04-25T08:29:44;10.90;99.90
76787;DHT22;65739;51.482;5.702;2023-04-25T08:32:09;10.90;99.90
76787;DHT22;65739;51.482;5.702;2023-04-25T08:34:35;11.20;99.90
76787;DHT22;65739;51.482;5.702;2023-04-25T08:37:02;11.20;99.90
76787;DHT22;65739;51.482;5.702;2023-04-25T08:39:29;11.00;99.90
76787;DHT22;65739;51.482;5.702;2023-04-25T08:41:55;10.80;99.90
76787;DHT22;65739;51.482;5.702;2023-04-25T08:44:22;10.80;99.90
76787;DHT22;65739;51.482;5.702;2023-04-25T08:46:49;10.90;99.90
76787;DHT22;65739;51.482;5.702;2023-04-25T08:49:17;11.00;99.90
76787;DHT22;65739;51.482;5.702;2023-04-25T08:51:45;11.10;99.90
76787;DHT22;65739;51.482;5.702;2023-04-25T08:54:15;11.40;99.90
76787;DHT22;65739;51.482;5.702;2023-04-25T08:56:44;11.70;99.90
76787;DHT22;65739;51.482;5.702;2023-04-25T08:59:12;11.50;99.90
76787;DHT22;65739;51.482;5.702;2023-04-25T09:01:37;11.00;99.90
76787;DHT22;65739;51.482;5.702;2023-04-25T09:04:03;10.90;99.90
76787;DHT22;65739;51.482;5.702;2023-04-25T09:06:29;10.80;99.90
76787;DHT22;65739;51.482;5.702;2023-04-25T09:09:05;10.80;99.90
76787;DHT22;65739;51.482;5.702;2023-04-25T09:11:35;10.70;99.90
76787;DHT22;65739;51.482;5.702;2023-04-25T09:14:21;10.50;99.90
76787;DHT22;65739;51.482;5.702;2023-04-25T09:21:54;10.80;99.90
76787;DHT22;65739;51.482;5.702;2023-04-25T09:24:30;10.70;99.90
76787;DHT22;65739;51.482;5.702;2023-04-25T09:26:56;11.00;99.90
76787;DHT22;65739;51.482;5.702;2023-04-25T09:29:32;11.50;99.90
76787;DHT22;65739;51.482;5.702;2023-04-25T09:32:18;12.20;99.90
76787;DHT22;65739;51.482;5.702;2023-04-25T09:34:57;12.40;99.90
76787;DHT22;65739;51.482;5.702;2023-04-25T09:37:24;13.20;99.90
76787;DHT22;65739;51.482;5.702;2023-04-25T09:39:53;13.00;99.90
76787;DHT22;65739;51.482;5.702;2023-04-25T09:42:22;13.30;99.90
76787;DHT22;65739;51.482;5.702;2023-04-25T09:44:51;13.20;99.90
76787;DHT22;65739;51.482;5.702;2023-04-25T09:47:17;13.00;99.90
76787;DHT22;65739;51.482;5.702;2023-04-25T09:49:43;12.80;99.90
76787;DHT22;65739;51.482;5.702;2023-04-25T09:52:13;12.60;99.90
76787;DHT22;65739;51.482;5.702;2023-04-25T09:54:39;12.00;99.90
76787;DHT22;65739;51.482;5.702;2023-04-25T09:57:11;12.00;99.90
76787;DHT22;65739;51.482;5.702;2023-04-25T09:59:39;12.00;99.90
76787;DHT22;65739;51.482;5.702;2023-04-25T10:02:07;11.60;99.90
76787;DHT22;65739;51.482;5.702;2023-04-25T10:04:34;10.80;99.90
76787;DHT22;65739;51.482;5.702;2023-04-25T10:07:01;10.70;99.90
76787;DHT22;65739;51.482;5.702;2023-04-25T10:09:29;10.30;99.90
76787;DHT22;65739;51.482;5.702;2023-04-25T10:11:59;10.20;99.90
76787;DHT22;65739;51.482;5.702;2023-04-25T10:14:26;9.60;99.90
76787;DHT22;65739;51.482;5.702;2023-04-25T10:16:52;9.20;99.90
76787;DHT22;65739;51.482;5.702;2023-04-25T10:19:19;9.00;99.90
76787;DHT22;65739;51.482;5.702;2023-04-25T10:22:34;8.90;99.90
76787;DHT22;65739;51.482;5.702;2023-04-25T10:24:40;9.00;99.90
76787;DHT22;65739;51.482;5.702;2023-04-25T10:27:06;9.20;99.90
76787;DHT22;65739;51.482;5.702;2023-04-25T10:29:32;9.20;99.90
76787;DHT22;65739;51.482;5.702;2023-04-25T10:31:58;9.60;99.90
76787;DHT22;65739;51.482;5.702;2023-04-25T10:34:25;10.40;99.90
76787;DHT22;65739;51.482;5.702;2023-04-25T10:37:02;11.00;99.90
76787;DHT22;65739;51.482;5.702;2023-04-25T10:39:28;11.40;99.90
76787;DHT22;65739;51.482;5.702;2023-04-25T10:41:58;11.90;99.90
76787;DHT22;65739;51.482;5.702;2023-04-25T10:44:28;12.10;99.90
76787;DHT22;65739;51.482;5.702;2023-04-25T10:46:59;12.20;99.90
76787;DHT22;65739;51.482;5.702;2023-04-25T10:49:33;12.60;99.90
76787;DHT22;65739;51.482;5.702;2023-04-25T10:52:26;13.20;99.90
76787;DHT22;65739;51.482;5.702;2023-04-25T10:54:56;13.20;99.90
76787;DHT22;65739;51.482;5.702;2023-04-25T10:57:44;13.20;99.90
76787;DHT22;65739;51.482;5.702;2023-04-25T11:00:16;13.20;99.90
76787;DHT22;65739;51.482;5.702;2023-04-25T11:02:52;13.60;99.90
76787;DHT22;65739;51.482;5.702;2023-04-25T11:05:22;14.20;99.90
76787;DHT22;65739;51.482;5.702;2023-04-25T11:07:53;14.40;99.90
76787;DHT22;65739;51.482;5.702;2023-04-25T11:10:30;14.10;99.90
76787;DHT22;65739;51.482;5.702;2023-04-25T11:12:56;14.10;99.90
76787;DHT22;65739;51.482;5.702;2023-04-25T11:15:22;14.20;99.90
76787;DHT22;65739;51.482;5.702;2023-04-25T11:17:47;14.60;99.90
76787;DHT22;65739;51.482;5.702;2023-04-25T11:20:13;14.90;99.90
76787;DHT22;65739;51.482;5.702;2023-04-25T11:22:41;14.00;99.90
76787;DHT22;65739;51.482;5.702;2023-04-25T11:25:08;13.10;99.90
76787;DHT22;65739;51.482;5.702;2023-04-25T11:27:34;12.40;99.90
76787;DHT22;65739;51.482;5.702;2023-04-25T11:30:13;11.40;99.90
76787;DHT22;65739;51.482;5.702;2023-04-25T11:32:40;10.40;99.90
76787;DHT22;65739;51.482;5.702;2023-04-25T11:35:07;9.70;99.90
76787;DHT22;65739;51.482;5.702;2023-04-25T11:37:32;9.30;99.90
76787;DHT22;65739;51.482;5.702;2023-04-25T11:39:59;9.20;99.90
76787;DHT22;65739;51.482;5.702;2023-04-25T11:42:25;9.10;99.90
76787;DHT22;65739;51.482;5.702;2023-04-25T11:44:51;8.90;99.90
76787;DHT22;65739;51.482;5.702;2023-04-25T11:47:17;8.80;99.90
76787;DHT22;65739;51.482;5.702;2023-04-25T11:49:42;8.80;99.90
76787;DHT22;65739;51.482;5.702;2023-04-25T11:52:08;8.70;99.90
76787;DHT22;65739;51.482;5.702;2023-04-25T11:54:37;8.80;99.90
76787;DHT22;65739;51.482;5.702;2023-04-25T11:57:04;8.90;99.90
76787;DHT22;65739;51.482;5.702;2023-04-25T11:59:29;9.00;99.90
76787;DHT22;65739;51.482;5.702;2023-04-25T12:01:55;9.30;99.90
76787;DHT22;65739;51.482;5.702;2023-04-25T12:04:23;9.70;99.90
76787;DHT22;65739;51.482;5.702;2023-04-25T12:06:51;10.10;99.90
76787;DHT22;65739;51.482;5.702;2023-04-25T12:09:19;10.50;99.90
76787;DHT22;65739;51.482;5.702;2023-04-25T12:11:54;10.80;99.90
76787;DHT22;65739;51.482;5.702;2023-04-25T12:14:22;11.00;99.90
76787;DHT22;65739;51.482;5.702;2023-04-25T12:16:49;11.40;99.90
76787;DHT22;65739;51.482;5.702;2023-04-25T12:19:17;12.00;99.90
76787;DHT22;65739;51.482;5.702;2023-04-25T12:21:44;12.50;99.90
76787;DHT22;65739;51.482;5.702;2023-04-25T12:24:36;12.40;99.90
76787;DHT22;65739;51.482;5.702;2023-04-25T12:27:04;11.60;99.90
76787;DHT22;65739;51.482;5.702;2023-04-25T12:29:32;12.00;99.90
76787;DHT22;65739;51.482;5.702;2023-04-25T12:31:58;12.50;99.90
76787;DHT22;65739;51.482;5.702;2023-04-25T12:34:24;13.00;99.90
76787;DHT22;65739;51.482;5.702;2023-04-25T12:36:50;13.10;99.90
76787;DHT22;65739;51.482;5.702;2023-04-25T12:39:24;13.50;99.90
76787;DHT22;65739;51.482;5.702;2023-04-25T12:41:53;13.50;99.90
76787;DHT22;65739;51.482;5.702;2023-04-25T12:44:21;13.50;99.90
76787;DHT22;65739;51.482;5.702;2023-04-25T12:46:47;13.70;99.90
76787;DHT22;65739;51.482;5.702;2023-04-25T12:49:13;14.10;99.90
76787;DHT22;65739;51.482;5.702;2023-04-25T12:51:39;14.30;99.90
76787;DHT22;65739;51.482;5.702;2023-04-25T12:54:05;14.10;99.90
76787;DHT22;65739;51.482;5.702;2023-04-25T12:56:34;13.30;99.90
76787;DHT22;65739;51.482;5.702;2023-04-25T12:59:00;12.60;99.90
76787;DHT22;65739;51.482;5.702;2023-04-25T13:01:26;12.40;99.90
76787;DHT22;65739;51.482;5.702;2023-04-25T13:03:52;12.20;99.90
76787;DHT22;65739;51.482;5.702;2023-04-25T13:06:19;11.80;99.90
76787;DHT22;65739;51.482;5.702;2023-04-25T13:08:45;11.90;99.90
76787;DHT22;65739;51.482;5.702;2023-04-25T13:11:11;12.40;99.90
76787;DHT22;65739;51.482;5.702;2023-04-25T13:13:37;13.00;99.90
76787;DHT22;65739;51.482;5.702;2023-04-25T13:16:03;13.60;99.90
76787;DHT22;65739;51.482;5.702;2023-04-25T13:18:30;13.90;99.90
76787;DHT22;65739;51.482;5.702;2023-04-25T13:20:56;14.40;99.90
76787;DHT22;65739;51.482;5.702;2023-04-25T13:23:22;14.70;99.90
76787;DHT22;65739;51.482;5.702;2023-04-25T13:25:48;15.30;99.90
76787;DHT22;65739;51.482;5.702;2023-04-25T13:28:14;14.40;99.90
76787;DHT22;65739;51.482;5.702;2023-04-25T13:30:40;13.20;99.90
76787;DHT22;65739;51.482;5.702;2023-04-25T13:33:06;12.60;99.90
76787;DHT22;65739;51.482;5.702;2023-04-25T13:35:33;12.20;99.90
76787;DHT22;65739;51.482;5.702;2023-04-25T13:37:58;12.10;99.90
76787;DHT22;65739;51.482;5.702;2023-04-25T13:40:24;11.80;99.90
76787;DHT22;65739;51.482;5.702;2023-04-25T13:42:50;11.90;99.90
76787;DHT22;65739;51.482;5.702;2023-04-25T13:45:16;12.40;99.90
76787;DHT22;65739;51.482;5.702;2023-04-25T13:47:42;13.10;99.90
76787;DHT22;65739;51.482;5.702;2023-04-25T13:50:08;13.10;99.90
76787;DHT22;65739;51.482;5.702;2023-04-25T13:52:33;13.50;99.90
76787;DHT22;65739;51.482;5.702;2023-04-25T13:54:59;13.40;99.90
76787;DHT22;65739;51.482;5.702;2023-04-25T13:57:26;13.40;99.90
76787;DHT22;65739;51.482;5.702;2023-04-25T13:59:51;13.50;99.90
76787;DHT22;65739;51.482;5.702;2023-04-25T14:02:18;13.70;99.90
76787;DHT22;65739;51.482;5.702;2023-04-25T14:04:43;14.00;99.90
76787;DHT22;65739;51.482;5.702;2023-04-25T14:07:09;13.90;99.90
76787;DHT22;65739;51.482;5.702;2023-04-25T14:09:36;13.80;99.90
76787;DHT22;65739;51.482;5.702;2023-04-25T14:12:02;13.90;99.90
76787;DHT22;65739;51.482;5.702;2023-04-25T14:14:27;13.70;99.90
76787;DHT22;65739;51.482;5.702;2023-04-25T14:16:53;13.90;99.90
76787;DHT22;65739;51.482;5.702;2023-04-25T14:19:22;14.20;99.90
76787;DHT22;65739;51.482;5.702;2023-04-25T14:21:49;14.40;99.90
76787;DHT22;65739;51.482;5.702;2023-04-25T14:24:14;13.90;99.90
76787;DHT22;65739;51.482;5.702;2023-04-25T14:26:40;13.10;99.90
76787;DHT22;65739;51.482;5.702;2023-04-25T14:29:06;12.20;99.90
76787;DHT22;65739;51.482;5.702;2023-04-25T14:31:33;11.90;99.90
76787;DHT22;65739;51.482;5.702;2023-04-25T14:33:59;11.60;99.90
76787;DHT22;65739;51.482;5.702;2023-04-25T14:36:25;11.30;99.90
76787;DHT22;65739;51.482;5.702;2023-04-25T14:38:51;11.00;99.90
76787;DHT22;65739;51.482;5.702;2023-04-25T14:41:17;11.50;99.90
76787;DHT22;65739;51.482;5.702;2023-04-25T14:43:42;12.20;99.90
76787;DHT22;65739;51.482;5.702;2023-04-25T14:46:08;13.00;99.90
76787;DHT22;65739;51.482;5.702;2023-04-25T14:48:34;13.10;99.90
76787;DHT22;65739;51.482;5.702;2023-04-25T14:51:00;13.10;99.90
76787;DHT22;65739;51.482;5.702;2023-04-25T14:53:26;13.40;99.90
76787;DHT22;65739;51.482;5.702;2023-04-25T14:55:52;13.60;99.90
76787;DHT22;65739;51.482;5.702;2023-04-25T14:58:17;13.10;99.90
76787;DHT22;65739;51.482;5.702;2023-04-25T15:00:43;12.90;99.90
76787;DHT22;65739;51.482;5.702;2023-04-25T15:03:09;12.90;99.90
76787;DHT22;65739;51.482;5.702;2023-04-25T15:05:37;12.50;99.90
76787;DHT22;65739;51.482;5.702;2023-04-25T15:08:03;12.30;99.90
76787;DHT22;65739;51.482;5.702;2023-04-25T15:10:28;12.80;99.90
76787;DHT22;65739;51.482;5.702;2023-04-25T15:12:54;13.50;99.90
76787;DHT22;65739;51.482;5.702;2023-04-25T15:15:20;13.90;99.90
76787;DHT22;65739;51.482;5.702;2023-04-25T15:17:46;14.10;99.90
76787;DHT22;65739;51.482;5.702;2023-04-25T15:20:13;14.00;99.90
76787;DHT22;65739;51.482;5.702;2023-04-25T15:22:39;13.70;99.90
76787;DHT22;65739;51.482;5.702;2023-04-25T15:25:06;13.50;99.90
76787;DHT22;65739;51.482;5.702;2023-04-25T15:27:35;14.00;99.90
76787;DHT22;65739;51.482;5.702;2023-04-25T15:30:13;14.30;99.90
76787;DHT22;65739;51.482;5.702;2023-04-25T15:32:40;14.40;99.90
76787;DHT22;65739;51.482;5.702;2023-04-25T15:35:07;14.60;99.90
76787;DHT22;65739;51.482;5.702;2023-04-25T15:37:34;14.60;99.90
76787;DHT22;65739;51.482;5.702;2023-04-25T15:40:09;14.40;99.90
76787;DHT22;65739;51.482;5.702;2023-04-25T15:42:39;14.20;99.90